Time;durP1;ratioP1;P1;durP2;ratioP2;P2;SDS_P1;SDS_P2;PMS_P1;PMS_P2;Temp;Humidity;BMP_temperature;BMP_pressure;BME280_temperature;BME280_humidity;BME280_pressure;Samples;Min_cycle;Max_cycle;Signal;HPM_P1;HPM_P2
2023/05/17 00:01:44;;;;;;;5.97;2.07;;;;;;;7.37;96.50;101085.38;5071034;28;20700;-68
2023/05/17 00:04:10;;;;;;;5.57;2.60;;;;;;;7.36;97.09;101084.47;5066853;28;20707;-68
2023/05/17 00:06:37;;;;;;;4.40;2.60;;;;;;;7.36;97.73;101081.84;5065665;28;20236;-68
2023/05/17 00:09:03;;;;;;;7.03;2.87;;;;;;;7.32;97.99;101084.31;5069990;28;20202;-70
2023/05/17 00:11:30;;;;;;;3.53;2.37;;;;;;;7.26;98.86;101086.72;5063516;28;20197;-69
2023/05/17 00:13:56;;;;;;;6.00;2.20;;;;;;;7.10;99.60;101082.56;5060168;28;20230;-68
2023/05/17 00:16:23;;;;;;;5.17;2.47;;;;;;;7.10;100.00;101087.84;5059184;28;20662;-68
2023/05/17 00:18:49;;;;;;;5.53;3.03;;;;;;;7.11;100.00;101085.25;5068768;28;20196;-68
2023/05/17 00:21:16;;;;;;;5.40;2.57;;;;;;;7.24;100.00;101078.75;5068632;28;20699;-70
2023/05/17 00:23:42;;;;;;;4.63;2.50;;;;;;;7.18;100.00;101086.41;5055834;28;20212;-69
2023/05/17 00:26:08;;;;;;;3.90;2.30;;;;;;;7.35;99.47;101089.69;5064680;28;20231;-68
2023/05/17 00:28:35;;;;;;;6.43;2.67;;;;;;;7.33;99.18;101088.72;5052784;28;20200;-68
2023/05/17 00:31:01;;;;;;;5.43;2.20;;;;;;;7.34;98.99;101090.53;5063964;28;20199;-68
2023/05/17 00:33:28;;;;;;;4.87;2.60;;;;;;;7.27;99.10;101093.78;5067774;28;20202;-69
2023/05/17 00:35:54;;;;;;;6.17;2.70;;;;;;;7.32;98.89;101098.38;5069584;28;20217;-69
2023/05/17 00:38:20;;;;;;;7.00;2.50;;;;;;;7.37;98.73;101095.91;5070839;28;20203;-68
2023/05/17 00:40:49;;;;;;;5.57;2.70;;;;;;;7.37;98.28;101096.81;5067539;28;20248;-68
2023/05/17 00:43:15;;;;;;;4.90;2.53;;;;;;;7.26;99.09;101094.63;5065861;28;20475;-67
2023/05/17 00:45:41;;;;;;;5.87;2.40;;;;;;;7.07;100.00;101090.34;5058501;28;20616;-70
2023/05/17 00:48:08;;;;;;;4.40;2.50;;;;;;;6.85;100.00;101092.19;5064862;28;20240;-69
2023/05/17 00:50:35;;;;;;;5.73;2.73;;;;;;;6.65;100.00;101095.72;5052027;28;20202;-68
2023/05/17 00:53:01;;;;;;;5.87;2.70;;;;;;;6.49;100.00;101094.22;5064061;28;20583;-68
2023/05/17 00:55:29;;;;;;;8.37;2.73;;;;;;;6.42;100.00;101093.91;5060811;28;20591;-68
2023/05/17 00:57:55;;;;;;;3.60;2.20;;;;;;;6.29;100.00;101097.75;5057172;28;20583;-68
2023/05/17 01:00:22;;;;;;;3.73;2.43;;;;;;;6.17;100.00;101097.25;5068569;28;20211;-68
2023/05/17 01:02:49;;;;;;;7.73;2.73;;;;;;;6.16;100.00;101104.22;5058198;28;20320;-69
2023/05/17 01:05:16;;;;;;;5.70;2.93;;;;;;;6.06;100.00;101115.19;5051541;28;20728;-71
2023/05/17 01:07:42;;;;;;;5.43;2.57;;;;;;;6.01;100.00;101113.22;5059965;28;20671;-68
2023/05/17 01:10:09;;;;;;;6.13;2.37;;;;;;;5.97;100.00;101106.88;5062706;28;20684;-68
2023/05/17 01:12:54;;;;;;;4.50;2.40;;;;;;;5.92;100.00;101111.06;5069879;28;20198;-69
2023/05/17 01:15:27;;;;;;;4.70;2.33;;;;;;;5.83;100.00;101105.38;5063499;28;20232;-68
2023/05/17 01:18:11;;;;;;;5.53;2.50;;;;;;;5.73;100.00;101111.94;5067139;28;20209;-70
2023/05/17 01:20:40;;;;;;;3.63;2.30;;;;;;;5.64;100.00;101115.06;5069023;28;20625;-68
2023/05/17 01:23:34;;;;;;;5.10;2.80;;;;;;;5.56;100.00;101110.28;5049836;28;20196;-68
2023/05/17 01:26:17;;;;;;;7.30;2.47;;;;;;;5.53;100.00;101118.94;5063822;28;20233;-68
2023/05/17 01:28:48;;;;;;;3.90;2.40;;;;;;;5.49;100.00;101122.25;5064116;28;20264;-70
2023/05/17 01:31:16;;;;;;;5.13;2.93;;;;;;;5.59;100.00;101124.44;5061513;28;20546;-68
2023/05/17 01:33:42;;;;;;;5.23;2.57;;;;;;;5.70;100.00;101131.94;5057456;28;20413;-69
2023/05/17 01:36:09;;;;;;;6.43;2.93;;;;;;;5.70;100.00;101121.44;5054854;28;20244;-69
2023/05/17 01:38:35;;;;;;;4.73;2.57;;;;;;;5.87;100.00;101129.22;5067968;28;20195;-67
2023/05/17 01:41:37;;;;;;;5.03;2.40;;;;;;;5.91;100.00;101122.41;5063109;28;20259;-68
2023/05/17 01:44:12;;;;;;;3.70;2.53;;;;;;;6.11;100.00;101133.78;5065102;28;20195;-68
2023/05/17 01:46:40;;;;;;;5.00;2.60;;;;;;;6.35;100.00;101133.94;5052924;28;20243;-69
2023/05/17 01:49:34;;;;;;;7.63;2.43;;;;;;;6.79;100.00;101126.13;5061468;28;20211;-68
2023/05/17 01:52:19;;;;;;;10.87;2.87;;;;;;;6.81;100.00;101129.75;5059399;28;20370;-68
2023/05/17 01:55:00;;;;;;;6.13;2.93;;;;;;;6.87;100.00;101122.09;5059192;28;20220;-68
2023/05/17 01:57:31;;;;;;;6.60;2.87;;;;;;;7.12;100.00;101126.56;5064168;28;20196;-68
2023/05/17 02:00:00;;;;;;;7.20;2.37;;;;;;;7.33;100.00;101133.53;5064608;28;20344;-68
2023/05/17 02:02:27;;;;;;;6.50;2.90;;;;;;;7.33;100.00;101125.63;5061209;28;20212;-68
2023/05/17 02:04:54;;;;;;;4.63;2.77;;;;;;;7.30;100.00;101131.66;5064136;28;20223;-68
2023/05/17 02:07:20;;;;;;;5.53;2.63;;;;;;;7.29;100.00;101121.97;5055826;28;20198;-71
2023/05/17 02:09:47;;;;;;;5.43;2.47;;;;;;;7.26;100.00;101127.13;5066384;28;20699;-68
2023/05/17 02:12:13;;;;;;;7.50;3.03;;;;;;;7.22;100.00;101130.47;5068556;28;20232;-69
2023/05/17 02:14:40;;;;;;;6.00;2.13;;;;;;;7.20;100.00;101130.44;5069470;28;20287;-68
2023/05/17 02:17:06;;;;;;;4.33;2.53;;;;;;;7.23;100.00;101129.66;5066712;28;20653;-68
2023/05/17 02:19:33;;;;;;;4.67;2.67;;;;;;;7.16;100.00;101133.75;5067483;28;20203;-70
2023/05/17 02:21:59;;;;;;;9.17;2.83;;;;;;;7.15;100.00;101131.94;5062538;28;20228;-71
2023/05/17 02:24:26;;;;;;;6.67;2.53;;;;;;;7.09;100.00;101138.72;5052131;28;20204;-68
2023/05/17 02:26:52;;;;;;;6.80;2.70;;;;;;;7.01;100.00;101133.16;5057642;28;20237;-68
2023/05/17 02:29:19;;;;;;;6.80;2.50;;;;;;;6.83;100.00;101132.44;5067228;28;20199;-68
2023/05/17 02:31:45;;;;;;;3.63;2.27;;;;;;;6.73;100.00;101135.50;5060662;28;20231;-69
2023/05/17 02:34:14;;;;;;;4.33;2.43;;;;;;;6.66;100.00;101138.75;5063885;28;20216;-68
2023/05/17 02:36:43;;;;;;;4.63;2.30;;;;;;;6.80;100.00;101142.81;5060539;28;20228;-68
2023/05/17 02:39:09;;;;;;;5.03;2.40;;;;;;;6.64;100.00;101138.69;5050273;28;20200;-68
2023/05/17 02:41:36;;;;;;;6.60;2.50;;;;;;;6.64;100.00;101143.94;5067924;28;20217;-70
2023/05/17 02:44:02;;;;;;;5.83;2.30;;;;;;;6.71;100.00;101132.81;5063315;28;20212;-68
2023/05/17 02:46:29;;;;;;;6.40;2.40;;;;;;;6.77;100.00;101134.81;5054058;28;20231;-68
2023/05/17 02:48:55;;;;;;;6.00;2.60;;;;;;;6.70;100.00;101136.28;5068308;28;20205;-68
2023/05/17 02:51:22;;;;;;;5.17;2.57;;;;;;;6.80;100.00;101137.56;5067297;28;20629;-71
2023/05/17 02:53:48;;;;;;;4.10;2.33;;;;;;;6.78;100.00;101142.75;5054660;28;20205;-69
2023/05/17 02:56:15;;;;;;;6.03;2.40;;;;;;;6.76;100.00;101149.69;5065769;28;20217;-68
2023/05/17 02:58:43;;;;;;;2.93;2.20;;;;;;;6.69;100.00;101141.50;5067380;28;20692;-68
2023/05/17 03:01:09;;;;;;;4.10;2.23;;;;;;;6.79;100.00;101147.19;5061388;28;20201;-68
2023/05/17 03:03:36;;;;;;;5.50;2.50;;;;;;;6.73;100.00;101151.31;5067115;28;20220;-67
2023/05/17 03:06:03;;;;;;;7.50;2.40;;;;;;;6.78;100.00;101155.03;5066114;28;20240;-69
2023/05/17 03:08:30;;;;;;;4.13;2.20;;;;;;;6.80;100.00;101155.97;5065958;28;20210;-68
2023/05/17 03:10:56;;;;;;;4.07;2.40;;;;;;;6.71;100.00;101164.41;5063179;28;20206;-68
2023/05/17 03:13:23;;;;;;;4.13;2.10;;;;;;;6.69;100.00;101165.19;5059008;28;20212;-69
2023/05/17 03:15:49;;;;;;;5.37;2.37;;;;;;;6.74;100.00;101168.91;5062257;28;20222;-68
2023/05/17 03:18:16;;;;;;;4.13;2.60;;;;;;;6.68;100.00;101169.53;5066773;28;20194;-70
2023/05/17 03:20:42;;;;;;;7.37;2.27;;;;;;;6.66;100.00;101175.59;5063404;28;20212;-70
2023/05/17 03:23:09;;;;;;;8.37;2.37;;;;;;;6.59;100.00;101175.34;5061885;28;20317;-68
2023/05/17 03:25:35;;;;;;;5.90;2.53;;;;;;;6.65;100.00;101184.31;5053043;28;20297;-67
2023/05/17 03:28:01;;;;;;;4.93;2.60;;;;;;;6.60;100.00;101185.03;5057327;28;20208;-68
2023/05/17 03:30:28;;;;;;;5.17;2.70;;;;;;;6.61;100.00;101178.03;5064273;28;20282;-68
2023/05/17 03:32:54;;;;;;;5.53;2.20;;;;;;;6.59;100.00;101188.50;5054492;28;20674;-70
2023/05/17 03:35:21;;;;;;;4.40;2.17;;;;;;;6.51;100.00;101182.00;5062207;28;20718;-71
2023/05/17 03:37:47;;;;;;;6.27;2.50;;;;;;;6.50;100.00;101188.09;5060037;28;20645;-68
2023/05/17 03:40:14;;;;;;;6.67;2.50;;;;;;;6.42;100.00;101183.38;5066531;28;20225;-68
2023/05/17 03:42:40;;;;;;;5.73;2.53;;;;;;;6.44;100.00;101185.22;5035438;28;20704;-68
2023/05/17 03:45:07;;;;;;;4.23;2.33;;;;;;;6.48;100.00;101189.78;5052785;28;20753;-68
2023/05/17 03:47:34;;;;;;;4.80;2.57;;;;;;;6.50;100.00;101190.75;5064459;28;20611;-69
2023/05/17 03:50:00;;;;;;;6.07;2.50;;;;;;;6.58;100.00;101188.44;5071134;28;20247;-68
2023/05/17 03:52:26;;;;;;;11.40;2.60;;;;;;;6.58;100.00;101194.59;5069403;28;20186;-68
2023/05/17 03:54:53;;;;;;;6.30;2.63;;;;;;;6.57;100.00;101199.78;5060050;28;20314;-67
2023/05/17 03:57:20;;;;;;;4.20;2.30;;;;;;;6.51;100.00;101199.53;5060696;28;20195;-68
2023/05/17 03:59:47;;;;;;;4.77;2.70;;;;;;;6.47;100.00;101192.34;5069527;28;20205;-71
2023/05/17 04:02:15;;;;;;;5.03;2.33;;;;;;;6.42;100.00;101196.53;5065598;28;20253;-67
2023/05/17 04:04:48;;;;;;;6.23;2.40;;;;;;;6.43;100.00;101193.94;5068496;28;20576;-68
2023/05/17 04:07:15;;;;;;;4.83;2.53;;;;;;;6.53;100.00;101201.41;5066393;28;20673;-68
2023/05/17 04:09:42;;;;;;;6.70;2.77;;;;;;;6.55;100.00;101198.81;5064427;28;20225;-68
2023/05/17 04:12:09;;;;;;;6.73;2.50;;;;;;;6.57;100.00;101197.16;5057456;28;20202;-70
2023/05/17 04:14:37;;;;;;;5.33;2.67;;;;;;;6.60;100.00;101200.81;5064152;28;20729;-68
2023/05/17 04:17:04;;;;;;;6.37;2.67;;;;;;;6.65;100.00;101201.00;5056984;28;20580;-68
2023/05/17 04:19:30;;;;;;;5.10;2.50;;;;;;;6.65;100.00;101203.63;5060362;28;20283;-68
2023/05/17 04:21:57;;;;;;;8.33;2.70;;;;;;;6.72;100.00;101207.41;5065426;28;20721;-69
2023/05/17 04:24:23;;;;;;;7.60;2.60;;;;;;;6.74;100.00;101209.28;5059533;28;20799;-68
2023/05/17 04:26:50;;;;;;;6.97;2.53;;;;;;;6.76;100.00;101215.50;5060640;28;20237;-68
2023/05/17 04:29:16;;;;;;;8.13;2.53;;;;;;;6.76;100.00;101212.88;5068762;28;20194;-68
2023/05/17 04:31:42;;;;;;;5.13;2.43;;;;;;;6.77;100.00;101211.13;5069055;28;20664;-68
2023/05/17 04:34:09;;;;;;;6.20;2.50;;;;;;;6.78;100.00;101216.47;5060861;28;20198;-69
2023/05/17 04:36:35;;;;;;;4.67;2.50;;;;;;;6.86;100.00;101215.06;5064961;28;20305;-67
2023/05/17 04:39:04;;;;;;;3.87;2.50;;;;;;;6.93;100.00;101215.31;5065735;28;20316;-68
2023/05/17 04:41:31;;;;;;;6.80;2.73;;;;;;;7.01;100.00;101217.44;5058597;28;20222;-68
2023/05/17 04:43:58;;;;;;;4.27;2.77;;;;;;;7.11;100.00;101219.59;5061738;28;20195;-68
2023/05/17 04:46:25;;;;;;;5.10;2.97;;;;;;;7.20;100.00;101226.97;5064001;28;20224;-68
2023/05/17 04:48:52;;;;;;;4.43;2.30;;;;;;;7.30;100.00;101234.41;5054133;28;20199;-70
2023/05/17 04:51:18;;;;;;;5.93;2.73;;;;;;;7.36;100.00;101236.41;5056812;28;20698;-68
2023/05/17 04:53:45;;;;;;;5.77;3.03;;;;;;;7.45;100.00;101240.28;5070072;28;20205;-70
2023/05/17 04:56:11;;;;;;;5.53;2.53;;;;;;;7.49;100.00;101230.75;5066369;28;20301;-69
2023/05/17 04:58:38;;;;;;;4.57;2.43;;;;;;;7.58;100.00;101236.38;5058147;28;20202;-68
2023/05/17 05:01:04;;;;;;;6.63;2.77;;;;;;;7.63;100.00;101236.59;5062401;28;20202;-68
2023/05/17 05:03:31;;;;;;;4.63;2.30;;;;;;;7.72;100.00;101244.84;5063740;28;20310;-68
2023/05/17 05:05:57;;;;;;;5.67;2.87;;;;;;;7.81;100.00;101243.47;5053827;28;20750;-67
2023/05/17 05:08:24;;;;;;;6.77;3.30;;;;;;;7.89;100.00;101250.75;5060335;28;20202;-68
2023/05/17 05:10:50;;;;;;;6.70;2.50;;;;;;;7.96;99.59;101248.41;5066055;28;20701;-69
2023/05/17 05:13:17;;;;;;;6.83;2.67;;;;;;;8.07;99.26;101246.19;5058143;28;21600;-68
2023/05/17 05:15:43;;;;;;;6.60;2.97;;;;;;;8.16;98.37;101252.69;5061309;28;20238;-67
2023/05/17 05:18:10;;;;;;;6.33;2.93;;;;;;;8.25;97.59;101256.50;5064315;28;20235;-67
2023/05/17 05:20:36;;;;;;;7.47;3.10;;;;;;;8.35;96.97;101261.31;5064616;28;20311;-67
2023/05/17 05:23:04;;;;;;;10.20;3.20;;;;;;;8.44;96.15;101262.56;5060278;28;20594;-70
2023/05/17 05:25:31;;;;;;;11.27;2.83;;;;;;;8.66;95.56;101261.56;5067545;28;20654;-70
2023/05/17 05:27:58;;;;;;;5.30;3.33;;;;;;;8.90;93.61;101257.97;5068971;28;20311;-68
2023/05/17 05:30:24;;;;;;;8.07;3.23;;;;;;;9.10;92.33;101243.69;5064202;28;20200;-68
2023/05/17 05:32:51;;;;;;;8.20;3.10;;;;;;;9.31;90.98;101259.34;5063976;28;20197;-67
2023/05/17 05:35:18;;;;;;;6.87;3.20;;;;;;;9.49;89.52;101257.28;5068122;28;20640;-68
2023/05/17 05:37:44;;;;;;;7.87;3.20;;;;;;;9.67;88.88;101263.16;5069446;28;20599;-68
2023/05/17 05:40:11;;;;;;;7.53;3.17;;;;;;;9.77;88.76;101258.16;5063938;28;20202;-67
2023/05/17 05:42:38;;;;;;;6.70;3.13;;;;;;;9.99;88.15;101271.16;5065195;28;20219;-67
2023/05/17 05:45:05;;;;;;;6.50;3.30;;;;;;;9.98;87.84;101267.59;5068219;28;20725;-68
2023/05/17 05:47:31;;;;;;;6.10;2.57;;;;;;;10.23;86.60;101263.97;5067753;28;20209;-68
2023/05/17 05:49:58;;;;;;;6.63;2.90;;;;;;;10.30;85.56;101268.59;5066002;28;20201;-68
2023/05/17 05:52:24;;;;;;;5.87;2.93;;;;;;;10.23;84.63;101273.66;5065797;28;20233;-67
2023/05/17 05:54:51;;;;;;;9.13;2.60;;;;;;;9.91;85.95;101283.25;5067089;28;20595;-68
2023/05/17 05:57:17;;;;;;;5.20;2.80;;;;;;;9.73;86.37;101286.25;5062123;28;20191;-70
2023/05/17 05:59:44;;;;;;;5.40;2.80;;;;;;;9.75;86.40;101284.56;5038410;28;20202;-70
2023/05/17 06:02:10;;;;;;;8.30;3.43;;;;;;;9.71;87.28;101291.50;5063805;28;20573;-68
2023/05/17 06:04:37;;;;;;;7.97;3.00;;;;;;;9.84;85.81;101292.75;5055644;28;20206;-69
2023/05/17 06:07:12;;;;;;;6.60;3.00;;;;;;;9.87;85.90;101300.78;5061297;28;20204;-69
2023/05/17 06:09:38;;;;;;;4.37;2.83;;;;;;;9.92;85.21;101306.22;5049919;28;20279;-68
2023/05/17 06:12:05;;;;;;;5.20;2.97;;;;;;;10.01;85.89;101310.06;5055382;28;20262;-68
2023/05/17 06:14:31;;;;;;;9.90;3.20;;;;;;;10.16;85.32;101314.91;5058876;28;20623;-67
2023/05/17 06:16:58;;;;;;;6.73;2.70;;;;;;;10.34;84.73;101326.06;5059455;28;20678;-67
2023/05/17 06:19:24;;;;;;;8.50;3.30;;;;;;;10.76;82.65;101317.53;5060492;28;20191;-67
2023/05/17 06:21:51;;;;;;;6.03;2.90;;;;;;;11.49;78.31;101326.53;5056975;28;20718;-67
2023/05/17 06:24:17;;;;;;;8.50;3.13;;;;;;;12.20;75.29;101325.59;5060094;28;20716;-67
2023/05/17 06:26:43;;;;;;;8.40;3.00;;;;;;;12.60;72.93;101328.19;5057302;28;20219;-68
2023/05/17 06:29:10;;;;;;;9.13;2.93;;;;;;;12.46;72.17;101331.47;5060759;28;20195;-69
2023/05/17 06:31:36;;;;;;;6.67;2.60;;;;;;;12.50;72.59;101329.75;5053164;28;20205;-67
2023/05/17 06:34:03;;;;;;;6.57;3.50;;;;;;;12.22;72.63;101325.63;5063535;28;20196;-68
2023/05/17 06:36:29;;;;;;;7.40;3.20;;;;;;;12.42;72.74;101334.03;5064020;28;20218;-67
2023/05/17 06:38:58;;;;;;;9.57;2.83;;;;;;;12.08;72.00;101333.28;5055759;28;20226;-67
2023/05/17 06:41:24;;;;;;;9.17;3.30;;;;;;;11.78;72.88;101338.78;5063687;28;20205;-67
2023/05/17 06:43:51;;;;;;;9.30;3.10;;;;;;;11.63;74.43;101335.75;5055188;28;20244;-68
2023/05/17 06:46:17;;;;;;;6.43;3.20;;;;;;;11.64;74.65;101345.50;5059142;28;20664;-68
2023/05/17 06:48:43;;;;;;;7.70;2.63;;;;;;;11.89;72.88;101336.38;5065892;28;20293;-67
2023/05/17 06:51:10;;;;;;;6.67;3.00;;;;;;;12.22;72.73;101344.19;5060558;28;20293;-66
2023/05/17 06:53:36;;;;;;;6.37;3.00;;;;;;;12.51;71.29;101340.41;5064561;28;20274;-67
2023/05/17 06:56:03;;;;;;;6.57;2.97;;;;;;;13.00;68.44;101341.38;5057868;28;20215;-66
2023/05/17 06:58:29;;;;;;;8.40;2.67;;;;;;;13.75;63.64;101338.28;5062651;28;20195;-67
2023/05/17 07:00:56;;;;;;;6.37;2.73;;;;;;;14.31;61.11;101334.63;5062418;28;20206;-69
2023/05/17 07:03:22;;;;;;;4.70;2.47;;;;;;;16.45;53.08;101338.44;5061246;28;20262;-67
2023/05/17 07:05:49;;;;;;;5.83;2.80;;;;;;;17.72;47.84;101330.72;5060505;28;20697;-66
2023/05/17 07:08:15;;;;;;;6.20;2.60;;;;;;;16.67;48.65;101334.09;5050313;28;20549;-67
2023/05/17 07:10:42;;;;;;;6.30;2.50;;;;;;;15.24;52.08;101342.00;5064195;28;20676;-69
2023/05/17 07:13:08;;;;;;;7.33;2.37;;;;;;;14.57;55.24;101348.34;5055233;28;20194;-69
2023/05/17 07:15:35;;;;;;;3.47;2.30;;;;;;;14.58;55.63;101350.13;5061070;28;20215;-68
2023/05/17 07:18:01;;;;;;;3.57;2.30;;;;;;;14.21;57.85;101346.94;5062588;28;20193;-68
2023/05/17 07:20:28;;;;;;;6.97;2.93;;;;;;;14.81;56.77;101351.31;5060043;28;20232;-70
2023/05/17 07:22:55;;;;;;;8.43;2.77;;;;;;;16.09;52.20;101344.47;5060881;28;20221;-72
2023/05/17 07:25:21;;;;;;;6.80;2.73;;;;;;;15.05;55.09;101345.34;5061521;28;20247;-71
2023/05/17 07:27:47;;;;;;;4.73;2.23;;;;;;;14.79;55.24;101342.38;5059787;28;20225;-73
2023/05/17 07:30:14;;;;;;;3.40;2.60;;;;;;;15.59;54.75;101341.41;5040533;28;20206;-76
2023/05/17 07:32:40;;;;;;;4.17;2.30;;;;;;;16.87;49.01;101336.84;5058864;28;20675;-79
2023/05/17 07:35:07;;;;;;;6.53;2.20;;;;;;;16.58;47.57;101347.41;5060611;28;20250;-71
2023/05/17 07:37:33;;;;;;;4.93;2.70;;;;;;;18.84;42.81;101334.88;5057435;28;20198;-69
2023/05/17 07:40:00;;;;;;;4.43;2.20;;;;;;;19.81;37.65;101332.41;5055881;28;20607;-68
2023/05/17 07:42:26;;;;;;;4.03;1.97;;;;;;;18.06;38.25;101337.81;5069208;28;20198;-67
2023/05/17 07:44:53;;;;;;;5.00;2.00;;;;;;;15.57;43.52;101340.47;5071597;28;20232;-72
2023/05/17 07:47:19;;;;;;;4.33;2.20;;;;;;;15.29;46.20;101334.94;5065736;28;20205;-69
2023/05/17 07:49:46;;;;;;;7.37;2.10;;;;;;;16.30;43.91;101343.69;5065360;28;20616;-71
2023/05/17 07:52:12;;;;;;;4.97;2.00;;;;;;;15.63;43.46;101351.28;5067021;28;20213;-77
2023/05/17 07:54:38;;;;;;;5.77;2.17;;;;;;;15.15;44.74;101338.31;5064040;28;20195;-78
2023/05/17 07:57:05;;;;;;;4.53;2.17;;;;;;;14.79;47.31;101337.03;5060188;28;20247;-76
2023/05/17 07:59:32;;;;;;;5.17;2.27;;;;;;;14.85;48.43;101341.59;5059441;28;20225;-77
2023/05/17 08:01:58;;;;;;;5.00;2.07;;;;;;;15.61;46.84;101342.34;5061509;28;20197;-76
2023/05/17 08:04:24;;;;;;;4.13;2.13;;;;;;;15.80;45.39;101352.28;5065382;28;20224;-69
2023/05/17 08:06:51;;;;;;;9.10;2.90;;;;;;;15.50;43.86;101341.31;5063569;28;20240;-67
2023/05/17 08:09:20;;;;;;;6.20;2.10;;;;;;;15.59;43.28;101336.09;5065016;28;20220;-72
2023/05/17 08:11:46;;;;;;;5.10;2.10;;;;;;;15.68;42.38;101343.28;5069066;28;20202;-69
2023/05/17 08:14:16;;;;;;;4.93;2.10;;;;;;;15.19;43.20;101345.47;5064896;28;20279;-74
2023/05/17 08:16:45;;;;;;;4.67;2.20;;;;;;;14.94;44.87;101344.34;5066033;28;20210;-69
2023/05/17 08:19:13;;;;;;;5.63;2.30;;;;;;;15.11;46.55;101345.41;5059825;28;20205;-69
2023/05/17 08:21:41;;;;;;;6.40;2.37;;;;;;;14.91;45.58;101349.66;5054591;28;20198;-69
2023/05/17 08:24:08;;;;;;;7.50;2.40;;;;;;;14.82;46.14;101341.53;5067027;28;20224;-69
2023/05/17 08:26:34;;;;;;;6.10;2.40;;;;;;;14.79;46.03;101336.16;5061036;28;20232;-70
2023/05/17 08:29:01;;;;;;;5.87;2.53;;;;;;;14.77;46.79;101336.13;5050606;28;20202;-70
2023/05/17 08:31:28;;;;;;;5.53;2.50;;;;;;;14.25;48.17;101337.22;5063166;28;20198;-69
2023/05/17 08:33:54;;;;;;;4.87;2.37;;;;;;;14.14;48.21;101339.75;5065852;28;20221;-72
2023/05/17 08:36:21;;;;;;;3.87;2.10;;;;;;;14.01;48.89;101352.00;5051315;28;20271;-75
2023/05/17 08:38:47;;;;;;;6.50;2.60;;;;;;;13.85;49.21;101341.09;5063239;28;20640;-78
2023/05/17 08:41:14;;;;;;;5.60;2.57;;;;;;;14.03;49.21;101342.28;5047018;28;20201;-72
2023/05/17 08:43:40;;;;;;;4.00;2.43;;;;;;;13.90;49.40;101348.25;5065033;28;20216;-72
2023/05/17 08:46:08;;;;;;;5.37;2.57;;;;;;;13.82;49.99;101349.03;5068095;28;20234;-80
2023/05/17 08:48:40;;;;;;;7.03;2.90;;;;;;;14.05;48.73;101347.63;5066892;28;20202;-73
2023/05/17 08:51:10;;;;;;;9.83;2.70;;;;;;;14.29;49.27;101341.72;5056922;28;20294;-72
2023/05/17 08:53:37;;;;;;;9.20;2.53;;;;;;;14.20;47.05;101344.25;5065494;28;20210;-75
2023/05/17 08:56:05;;;;;;;9.73;2.80;;;;;;;14.48;46.54;101341.13;5045518;28;20938;-75
2023/05/17 08:58:36;;;;;;;8.43;3.53;;;;;;;14.24;46.98;101347.00;5068453;28;20311;-75
2023/05/17 09:01:22;;;;;;;5.57;2.77;;;;;;;14.38;46.12;101348.06;5063126;28;20194;-77
2023/05/17 09:03:52;;;;;;;4.13;2.50;;;;;;;14.43;46.07;101334.84;5064423;28;20218;-76
2023/05/17 09:06:20;;;;;;;6.70;2.60;;;;;;;14.66;46.96;101337.78;5063852;28;20577;-78
2023/05/17 09:08:49;;;;;;;9.10;3.00;;;;;;;15.23;45.07;101328.63;5064172;28;20231;-78
2023/05/17 09:11:25;;;;;;;7.47;2.60;;;;;;;15.87;42.61;101319.38;5064542;28;20198;-74
2023/05/17 09:13:51;;;;;;;7.27;2.60;;;;;;;16.47;39.87;101323.28;5050117;28;20696;-74
2023/05/17 09:16:20;;;;;;;4.73;2.33;;;;;;;16.77;37.71;101325.19;5068308;28;20635;-70
2023/05/17 09:18:54;;;;;;;6.37;2.60;;;;;;;16.86;38.53;101324.34;5068128;28;20194;-69
2023/05/17 09:21:22;;;;;;;7.10;2.60;;;;;;;16.81;38.90;101327.03;5071007;28;20727;-67
2023/05/17 09:23:50;;;;;;;5.83;2.43;;;;;;;16.76;39.96;101335.91;5068447;28;20210;-67
2023/05/17 09:26:42;;;;;;;4.40;2.57;;;;;;;16.14;41.49;101339.16;5071062;28;20217;-67
2023/05/17 09:29:13;;;;;;;4.90;3.07;;;;;;;15.54;44.53;101335.13;5053429;28;20198;-70
2023/05/17 09:31:40;;;;;;;5.93;2.60;;;;;;;15.36;44.67;101336.75;5071074;28;20190;-69
2023/05/17 09:34:07;;;;;;;6.23;2.50;;;;;;;15.56;44.58;101336.91;5065494;28;20197;-71
2023/05/17 09:36:36;;;;;;;8.23;2.80;;;;;;;15.76;44.95;101344.25;5068039;28;20213;-69
2023/05/17 09:39:05;;;;;;;7.17;3.00;;;;;;;15.54;46.70;101333.34;5071329;28;20279;-71
2023/05/17 09:41:33;;;;;;;5.93;2.73;;;;;;;15.50;46.20;101322.63;5067462;28;20220;-70
2023/05/17 09:44:00;;;;;;;6.37;2.93;;;;;;;15.51;45.91;101332.44;5069865;28;20246;-71
2023/05/17 09:46:27;;;;;;;6.03;2.70;;;;;;;15.24;46.01;101322.41;5069648;28;20218;-74
2023/05/17 09:48:55;;;;;;;5.57;2.23;;;;;;;15.54;46.22;101330.66;5069969;28;20217;-70
2023/05/17 09:51:35;;;;;;;6.20;2.60;;;;;;;14.96;45.66;101327.47;5059641;28;20580;-73
2023/05/17 09:54:02;;;;;;;5.83;2.83;;;;;;;15.11;46.07;101333.84;5063752;28;20190;-72
2023/05/17 09:56:30;;;;;;;6.93;2.77;;;;;;;15.32;46.61;101320.72;5066074;28;20218;-70
2023/05/17 09:59:00;;;;;;;4.37;2.63;;;;;;;15.47;45.59;101325.28;5064356;28;20285;-70
2023/05/17 10:01:28;;;;;;;5.77;2.47;;;;;;;16.29;43.77;101333.88;5067146;28;20290;-70
2023/05/17 10:03:58;;;;;;;5.23;2.53;;;;;;;16.43;43.84;101328.63;5070181;28;20245;-70
2023/05/17 10:06:25;;;;;;;3.87;2.63;;;;;;;16.01;43.82;101322.16;5066954;28;20835;-69
2023/05/17 10:09:13;;;;;;;4.23;2.20;;;;;;;15.33;43.59;101327.84;5066181;28;20194;-69
2023/05/17 10:11:44;;;;;;;5.20;2.27;;;;;;;15.12;43.29;101327.63;5070493;28;20289;-70
2023/05/17 10:14:17;;;;;;;3.77;2.23;;;;;;;14.91;44.86;101323.88;5069934;28;20571;-71
2023/05/17 10:16:44;;;;;;;5.07;2.50;;;;;;;14.96;44.32;101323.91;5066298;28;20782;-73
2023/05/17 10:19:11;;;;;;;8.03;3.57;;;;;;;15.29;45.06;101318.91;5063897;28;20195;-75
2023/05/17 10:21:38;;;;;;;4.80;2.30;;;;;;;15.52;44.30;101321.75;5070028;28;20204;-74
2023/05/17 10:24:06;;;;;;;5.83;2.47;;;;;;;15.92;43.22;101311.41;5069958;28;20220;-72
2023/05/17 10:26:34;;;;;;;5.00;2.50;;;;;;;16.40;42.60;101318.78;5063133;28;20225;-71
2023/05/17 10:29:02;;;;;;;4.67;2.40;;;;;;;16.63;42.91;101316.22;5063255;28;20205;-69
2023/05/17 10:31:31;;;;;;;6.53;2.70;;;;;;;16.59;42.04;101320.66;5070033;28;20530;-69
2023/05/17 10:34:00;;;;;;;6.63;2.30;;;;;;;16.74;41.64;101321.63;5065610;28;20195;-71
2023/05/17 10:36:27;;;;;;;7.47;2.60;;;;;;;17.06;41.27;101309.22;5065668;28;20241;-68
2023/05/17 10:38:54;;;;;;;5.20;2.43;;;;;;;17.13;41.66;101304.75;5066825;28;20201;-68
2023/05/17 10:41:23;;;;;;;6.17;2.80;;;;;;;16.85;39.78;101310.09;5063686;28;20205;-73
2023/05/17 10:43:50;;;;;;;6.30;2.27;;;;;;;17.05;38.87;101302.09;5058388;28;20225;-68
2023/05/17 10:46:20;;;;;;;4.73;2.53;;;;;;;17.75;37.63;101304.81;5066369;23;20222;-68
2023/05/17 10:48:49;;;;;;;6.10;2.70;;;;;;;17.85;40.25;101311.94;5049520;28;20221;-67
2023/05/17 10:51:30;;;;;;;6.77;2.50;;;;;;;17.46;41.49;101301.22;5015357;28;20619;-67
2023/05/17 10:54:10;;;;;;;6.20;2.80;;;;;;;16.65;43.23;101310.88;5036446;28;20240;-69
2023/05/17 10:56:46;;;;;;;5.70;2.90;;;;;;;16.70;44.13;101310.03;5043784;28;20305;-69
2023/05/17 10:59:20;;;;;;;6.73;2.90;;;;;;;16.55;44.38;101307.28;5048095;28;20556;-71
2023/05/17 11:02:12;;;;;;;6.33;2.93;;;;;;;16.54;44.38;101305.50;5043416;28;20195;-71
2023/05/17 11:04:42;;;;;;;7.00;2.93;;;;;;;17.16;44.05;101296.72;5044077;28;20238;-70
2023/05/17 11:07:18;;;;;;;5.73;2.60;;;;;;;17.04;43.43;101289.59;5021037;28;20326;-72
2023/05/17 11:09:54;;;;;;;5.13;2.93;;;;;;;17.05;41.28;101286.03;5036826;28;20224;-69
2023/05/17 11:12:39;;;;;;;5.17;2.70;;;;;;;18.20;40.08;101277.91;5042242;28;20248;-68
2023/05/17 11:15:11;;;;;;;6.27;2.70;;;;;;;18.90;38.52;101277.59;5035279;28;20199;-69
2023/05/17 11:17:53;;;;;;;6.13;2.40;;;;;;;18.99;37.10;101278.41;5042612;28;20325;-69
2023/05/17 11:20:26;;;;;;;7.13;2.70;;;;;;;18.33;35.90;101282.31;5051500;28;20243;-69
2023/05/17 11:22:58;;;;;;;6.03;2.40;;;;;;;17.32;37.09;101287.84;5046264;28;20206;-70
2023/05/17 11:25:34;;;;;;;5.43;2.40;;;;;;;17.29;37.63;101279.81;5040724;28;20222;-70
2023/05/17 11:28:09;;;;;;;5.27;2.40;;;;;;;17.79;35.86;101282.47;5047418;28;20198;-70
2023/05/17 11:30:40;;;;;;;4.07;2.30;;;;;;;18.57;35.74;101282.22;5042177;28;20678;-71
2023/05/17 11:33:06;;;;;;;4.90;2.10;;;;;;;19.16;34.71;101289.00;5040238;28;20192;-69